createdAt,value
2023-01-03T00:03:17.049Z,7.88
2023-01-03T00:07:34.213Z,7.77
2023-01-03T00:11:57.214Z,7.66
2023-01-03T00:16:00.436Z,7.52
2023-01-03T00:20:05.431Z,7.42
2023-01-03T00:24:09.770Z,7.28
2023-01-03T00:28:12.830Z,7.12
2023-01-03T00:32:16.988Z,7.04
2023-01-03T00:36:21.461Z,6.96
2023-01-03T00:40:24.509Z,6.84
2023-01-03T00:44:27.652Z,6.80
2023-01-03T00:48:31.122Z,6.81
2023-01-03T00:52:35.579Z,6.70
2023-01-03T00:56:40.297Z,6.66
2023-01-03T01:00:43.339Z,6.75
2023-01-03T01:04:47.539Z,6.68
2023-01-03T01:08:54.061Z,6.55
2023-01-03T01:12:57.256Z,6.55
2023-01-03T01:17:01.990Z,6.42
2023-01-03T01:21:06.772Z,6.28
2023-01-03T01:25:11.268Z,6.23
2023-01-03T01:29:16.051Z,6.21
2023-01-03T01:33:19.124Z,6.17
2023-01-03T01:37:22.138Z,6.14
2023-01-03T01:41:45.542Z,6.20
2023-01-03T01:45:48.719Z,6.12
2023-01-03T01:49:55.380Z,6.09
2023-01-03T01:54:01.814Z,5.86
2023-01-03T01:58:07.700Z,5.89
2023-01-03T02:02:11.929Z,5.76
2023-01-03T02:06:18.086Z,5.71
2023-01-03T02:10:31.904Z,5.64
2023-01-03T02:14:45.238Z,5.60
2023-01-03T02:18:55.887Z,5.59
2023-01-03T02:23:34.028Z,5.63
2023-01-03T02:28:05.275Z,5.49
2023-01-03T02:32:15.683Z,5.48
2023-01-03T02:36:25.720Z,5.46
2023-01-03T02:40:36.438Z,5.48
2023-01-03T02:44:46.252Z,5.33
2023-01-03T02:48:56.935Z,5.29
2023-01-03T02:53:03.909Z,5.22
2023-01-03T02:57:12.336Z,5.24
2023-01-03T03:01:19.422Z,5.25
2023-01-03T03:05:28.975Z,5.19
2023-01-03T03:09:32.476Z,5.22
2023-01-03T03:13:38.899Z,5.21
2023-01-03T03:17:43.396Z,5.11
2023-01-03T03:22:01.872Z,5.12
2023-01-03T03:26:10.569Z,5.16
2023-01-03T03:30:17.959Z,5.13
2023-01-03T03:34:25.881Z,5.18
2023-01-03T03:38:35.883Z,5.18
2023-01-03T03:43:02.873Z,5.17
2023-01-03T03:47:14.494Z,5.09
2023-01-03T03:51:21.252Z,5.05
2023-01-03T03:55:35.024Z,5.01
2023-01-03T03:59:39.880Z,5.02
2023-01-03T04:03:45.418Z,5.10
2023-01-03T04:07:48.705Z,5.07
2023-01-03T04:11:53.084Z,5.00
2023-01-03T04:15:56.447Z,5.05
2023-01-03T04:19:59.567Z,5.17
2023-01-03T04:24:02.585Z,5.12
2023-01-03T04:28:07.053Z,5.17
2023-01-03T04:32:10.231Z,5.23
2023-01-03T04:36:13.689Z,5.18
2023-01-03T04:40:16.871Z,5.17
2023-01-03T04:44:21.265Z,5.27
2023-01-03T04:48:24.467Z,5.23
2023-01-03T04:52:27.515Z,5.20
2023-01-03T04:56:32.714Z,5.20
2023-01-03T05:00:37.096Z,5.20
2023-01-03T05:04:40.201Z,5.19
2023-01-03T05:08:46.388Z,5.25
2023-01-03T05:12:59.977Z,5.08
2023-01-03T05:17:04.588Z,4.98
2023-01-03T05:21:26.308Z,4.86
2023-01-03T05:25:47.103Z,4.96
2023-01-03T05:29:52.193Z,5.07
2023-01-03T05:33:56.993Z,5.07
2023-01-03T05:37:59.995Z,4.92
2023-01-03T05:42:03.061Z,4.72
2023-01-03T05:46:07.125Z,4.70
2023-01-03T05:50:11.629Z,4.57
2023-01-03T05:54:16.241Z,4.62
2023-01-03T05:58:19.273Z,4.50
2023-01-03T06:02:22.379Z,4.58
2023-01-03T06:06:26.947Z,4.79
2023-01-03T06:10:30.430Z,4.90
2023-01-03T06:14:33.822Z,4.96
2023-01-03T06:18:37.492Z,4.94
2023-01-03T06:22:41.881Z,5.00
2023-01-03T06:26:44.911Z,5.12
2023-01-03T06:30:48.006Z,4.95
2023-01-03T06:34:51.099Z,5.04
2023-01-03T06:38:55.831Z,5.13
2023-01-03T06:42:59.439Z,4.96
2023-01-03T06:47:19.855Z,4.92
2023-01-03T06:51:40.674Z,4.96
2023-01-03T06:55:52.707Z,4.98
2023-01-03T06:59:59.308Z,4.98
2023-01-03T07:04:03.699Z,4.72
2023-01-03T07:08:06.909Z,4.64
2023-01-03T07:12:25.192Z,4.58
2023-01-03T07:16:30.032Z,4.60
2023-01-03T07:20:33.115Z,4.60
2023-01-03T07:24:36.203Z,4.58
2023-01-03T07:28:40.901Z,4.70
2023-01-03T07:32:43.972Z,4.90
2023-01-03T07:36:46.999Z,4.97
2023-01-03T07:40:50.006Z,5.08
2023-01-03T07:44:54.395Z,5.25
2023-01-03T07:49:07.864Z,5.30
2023-01-03T07:53:17.027Z,5.26
2023-01-03T07:57:20.231Z,5.22
2023-01-03T08:01:26.109Z,5.26
2023-01-03T08:05:29.293Z,5.41
2023-01-03T08:09:52.247Z,5.61
2023-01-03T08:13:55.237Z,5.76
2023-01-03T08:17:59.669Z,5.96
2023-01-03T08:22:02.789Z,6.12
2023-01-03T08:26:07.538Z,6.29
2023-01-03T08:30:11.844Z,6.46
2023-01-03T08:34:25.148Z,6.57
2023-01-03T08:38:36.643Z,6.68
2023-01-03T08:42:39.901Z,6.84
2023-01-03T08:46:46.756Z,7.12
2023-01-03T08:50:51.412Z,7.26
2023-01-03T08:54:54.568Z,7.26
2023-01-03T08:58:58.709Z,7.27
2023-01-03T09:03:01.928Z,7.30
2023-01-03T09:07:06.773Z,7.45
2023-01-03T09:11:11.045Z,7.52
2023-01-03T09:15:14.163Z,7.46
2023-01-03T09:19:17.467Z,7.36
2023-01-03T09:23:22.066Z,7.65
2023-01-03T09:27:25.078Z,7.58
2023-01-03T09:31:30.043Z,8.12
2023-01-03T09:35:34.262Z,8.15
2023-01-03T09:39:40.821Z,8.49
2023-01-03T09:43:46.692Z,8.33
2023-01-03T09:47:49.935Z,8.65
2023-01-03T09:52:11.596Z,8.67
2023-01-03T09:56:33.873Z,9.24
2023-01-03T10:00:58.888Z,10.17
2023-01-03T10:05:19.486Z,11.26
2023-01-03T10:09:33.816Z,10.40
2023-01-03T10:13:53.543Z,10.06
2023-01-03T10:18:08.471Z,9.37
2023-01-03T10:22:15.102Z,9.20
2023-01-03T10:26:20.054Z,9.26
2023-01-03T10:30:34.923Z,9.25
2023-01-03T10:34:38.887Z,9.25
2023-01-03T10:38:47.979Z,9.17
2023-01-03T10:42:56.440Z,9.33
2023-01-03T10:47:11.065Z,9.22
2023-01-03T10:51:29.790Z,9.30
2023-01-03T10:55:36.183Z,9.42
2023-01-03T10:59:50.789Z,9.39
2023-01-03T11:04:20.020Z,9.42
2023-01-03T11:08:24.622Z,9.58
2023-01-03T11:12:30.583Z,9.55
2023-01-03T11:16:33.932Z,9.60
2023-01-03T11:20:44.957Z,9.72
2023-01-03T11:24:58.487Z,9.71
2023-01-03T11:29:20.066Z,9.80
2023-01-03T11:33:36.989Z,9.82
2023-01-03T11:37:53.437Z,9.68
2023-01-03T11:42:09.949Z,9.80
2023-01-03T11:46:23.871Z,9.84
2023-01-03T11:50:36.934Z,9.82
2023-01-03T11:55:05.230Z,9.90
2023-01-03T11:59:34.843Z,10.01
2023-01-03T12:03:55.587Z,10.04
2023-01-03T12:08:06.277Z,9.99
2023-01-03T12:12:25.975Z,9.86
2023-01-03T12:16:34.374Z,9.90
2023-01-03T12:20:40.167Z,9.87
2023-01-03T12:24:49.389Z,9.70
2023-01-03T12:29:01.259Z,9.72
2023-01-03T12:33:14.844Z,9.72
2023-01-03T12:37:21.996Z,9.75
2023-01-03T12:41:29.969Z,9.80
2023-01-03T12:45:44.473Z,9.81
2023-01-03T12:49:54.713Z,10.63
2023-01-03T12:54:16.264Z,10.68
2023-01-03T12:58:39.249Z,10.20
2023-01-03T13:02:51.502Z,10.05
2023-01-03T13:07:04.887Z,9.85
2023-01-03T13:11:16.631Z,9.80
2023-01-03T13:15:36.025Z,9.82
2023-01-03T13:19:56.759Z,11.08
2023-01-03T13:24:01.034Z,11.32
2023-01-03T13:28:33.218Z,10.98
2023-01-03T13:32:49.081Z,11.24
2023-01-03T13:37:18.341Z,12.33
2023-01-03T13:41:34.088Z,12.44
2023-01-03T13:45:59.756Z,11.01
2023-01-03T13:50:03.822Z,10.12
2023-01-03T13:54:35.300Z,10.62
2023-01-03T13:58:44.122Z,10.15
2023-01-03T14:03:10.144Z,10.17
2023-01-03T14:07:51.933Z,9.95
2023-01-03T14:12:23.557Z,9.93
2023-01-03T14:16:28.758Z,9.82
2023-01-03T14:20:37.933Z,9.80
2023-01-03T14:24:49.568Z,10.70
2023-01-03T14:28:56.134Z,10.53
2023-01-03T14:32:59.895Z,11.37
2023-01-03T14:37:05.287Z,11.00
2023-01-03T14:41:27.273Z,10.65
2023-01-03T14:45:31.851Z,10.48
2023-01-03T14:49:43.985Z,10.26
2023-01-03T14:53:47.449Z,10.28
2023-01-03T14:57:52.685Z,10.54
2023-01-03T15:01:57.377Z,10.15
2023-01-03T15:06:01.712Z,9.91
2023-01-03T15:10:18.548Z,9.53
2023-01-03T15:14:22.954Z,9.29
2023-01-03T15:18:30.618Z,9.15
2023-01-03T15:22:40.404Z,9.07
2023-01-03T15:26:46.273Z,8.94
2023-01-03T15:30:50.021Z,8.79
2023-01-03T15:34:54.673Z,8.75
2023-01-03T15:38:58.853Z,8.59
2023-01-03T15:43:22.179Z,8.62
2023-01-03T15:47:30.768Z,8.47
2023-01-03T15:51:35.305Z,8.35
2023-01-03T15:55:38.407Z,8.29
2023-01-03T15:59:43.798Z,8.26
2023-01-03T16:03:48.731Z,8.23
2023-01-03T16:07:53.173Z,8.21
2023-01-03T16:11:59.581Z,8.11
2023-01-03T16:16:03.153Z,8.30
2023-01-03T16:20:07.072Z,8.16
2023-01-03T16:24:16.434Z,8.15
2023-01-03T16:28:19.488Z,8.29
2023-01-03T16:32:24.886Z,8.26
2023-01-03T16:36:32.485Z,8.21
2023-01-03T16:40:37.130Z,8.22
2023-01-03T16:44:42.460Z,8.15
2023-01-03T16:48:47.954Z,8.23
2023-01-03T16:52:55.619Z,8.33
2023-01-03T16:57:00.245Z,8.29
2023-01-03T17:01:03.337Z,8.29
2023-01-03T17:05:06.950Z,8.19
2023-01-03T17:09:16.298Z,8.18
2023-01-03T17:13:31.069Z,8.23
2023-01-03T17:17:34.493Z,8.21
2023-01-03T17:21:38.127Z,8.22
2023-01-03T17:27:13.849Z,8.27
2023-01-03T17:31:20.535Z,8.44
2023-01-03T17:35:24.127Z,8.36
2023-01-03T17:39:28.879Z,8.38
2023-01-03T17:43:32.798Z,8.36
2023-01-03T17:47:57.919Z,8.39
2023-01-03T17:52:03.442Z,8.43
2023-01-03T17:56:07.661Z,8.40
2023-01-03T18:00:17.940Z,8.40
2023-01-03T18:04:30.220Z,8.41
2023-01-03T18:08:43.113Z,8.49
2023-01-03T18:12:46.798Z,8.30
2023-01-03T18:16:55.105Z,8.32
2023-01-03T18:21:00.801Z,8.43
2023-01-03T18:25:04.482Z,8.33
2023-01-03T18:29:08.664Z,8.35
2023-01-03T18:33:12.096Z,8.26
2023-01-03T18:37:20.532Z,8.37
2023-01-03T18:41:27.391Z,8.41
2023-01-03T18:45:30.890Z,8.32
2023-01-03T18:49:34.405Z,8.26
2023-01-03T18:53:39.490Z,8.25
2023-01-03T18:57:43.041Z,8.32
2023-01-03T19:01:46.942Z,8.30
2023-01-03T19:05:51.297Z,8.43
2023-01-03T19:09:56.169Z,8.42
2023-01-03T19:14:02.591Z,8.35
2023-01-03T19:18:06.268Z,8.45
2023-01-03T19:22:24.268Z,8.42
2023-01-03T19:26:33.054Z,8.44
2023-01-03T19:30:39.037Z,8.40
2023-01-03T19:34:42.493Z,8.56
2023-01-03T19:38:45.899Z,8.50
2023-01-03T19:42:53.677Z,8.55
2023-01-03T19:46:57.517Z,8.46
2023-01-03T19:51:01.102Z,8.39
2023-01-03T19:55:05.237Z,8.35
2023-01-03T19:59:24.531Z,8.32
2023-01-03T20:03:31.816Z,8.29
2023-01-03T20:07:35.394Z,8.28
2023-01-03T20:11:39.101Z,8.34
2023-01-03T20:15:45.464Z,8.41
2023-01-03T20:19:49.411Z,8.42
2023-01-03T20:23:55.647Z,8.42
2023-01-03T20:28:00.877Z,8.44
2023-01-03T20:32:06.258Z,8.35
2023-01-03T20:36:22.636Z,8.29
2023-01-03T20:40:34.015Z,8.46
2023-01-03T20:44:37.552Z,8.48
2023-01-03T20:48:42.488Z,8.45
2023-01-03T20:52:46.520Z,8.43
2023-01-03T20:56:49.965Z,8.52
2023-01-03T21:00:59.897Z,8.54
2023-01-03T21:05:09.579Z,8.61
2023-01-03T21:09:14.313Z,8.70
2023-01-03T21:13:18.146Z,8.71
2023-01-03T21:17:21.671Z,8.74
2023-01-03T21:21:27.156Z,8.84
2023-01-03T21:25:32.950Z,8.83
2023-01-03T21:29:36.330Z,8.84
2023-01-03T21:33:39.690Z,8.76
2023-01-03T21:37:45.243Z,8.89
2023-01-03T21:42:06.215Z,8.84
2023-01-03T21:46:09.831Z,8.81
2023-01-03T21:50:13.414Z,8.85
2023-01-03T21:54:19.515Z,8.81
2023-01-03T21:58:24.357Z,8.86
2023-01-03T22:02:41.818Z,8.80
2023-01-03T22:06:45.407Z,8.73
2023-01-03T22:10:51.071Z,8.81
2023-01-03T22:14:54.461Z,8.81
2023-01-03T22:18:57.664Z,8.86
2023-01-03T22:23:00.855Z,8.85
2023-01-03T22:27:05.537Z,8.95
2023-01-03T22:31:12.812Z,8.91
2023-01-03T22:35:18.842Z,8.96
2023-01-03T22:39:23.886Z,8.99
2023-01-03T22:43:28.852Z,9.07
2023-01-03T22:47:31.952Z,9.18
2023-01-03T22:51:34.925Z,9.23
2023-01-03T22:55:41.838Z,9.29
2023-01-03T22:59:46.555Z,9.19
2023-01-03T23:03:50.211Z,9.28
2023-01-03T23:07:53.663Z,9.32
2023-01-03T23:12:14.359Z,9.26
2023-01-03T23:16:18.941Z,9.24
2023-01-03T23:20:22.341Z,9.32
2023-01-03T23:24:25.572Z,9.34
2023-01-03T23:28:29.108Z,9.40
2023-01-03T23:32:34.491Z,9.42
2023-01-03T23:36:37.576Z,9.50
2023-01-03T23:40:40.842Z,9.49
2023-01-03T23:44:43.927Z,9.56
2023-01-03T23:48:49.363Z,9.54
2023-01-03T23:52:52.776Z,9.52
2023-01-03T23:56:56.219Z,9.51
